Terminal Aerodrome Forecast
Issued by NWS Riverton, WY

Current Version | Previous Version | Text Only | Print | Product List | Glossary On
Versions: 1 2 3 4 5 6 7 8 9 10 11 12 13 14 15 16 17
000
FTUS45 KRIW 042300
TAFRIW
TAF
KRIW 042327Z 0500/0524 07010KT P6SM VCSH SCT100 BKN250
     FM050300 VRB06KT P6SM SCT100 BKN250
     FM050900 VRB06KT P6SM SCT100 SCT250
     FM052200 VRB05G15KT P6SM VCSH SCT060 BKN100=

USA.gov is the U.S. government's official web portal to all federal, state and local government web resources and services.